Robstown, TX

05:16 CDT 21. Říjen 2014 (GMT -0500)
Kingsville Naval Air Station | Change Station
CLOSE
Current Station
Letiště
Location: Kingsville NAS,
Nadmořská výška: 49 ft
Poblíž povětrnostní stanice

Výška 49 ft 27.51 °N, 97.81 °W | Updated 20 minutes ago

Jasno
Jasno
71 °F
Pocit jako 71 °F
S
7
Vítr proměnlivý Vítr od SSV

Dnes
Vysoké -- | Nízké -- °F
--% Možnost srážek
Včera
Vysoké -- | Nízké -- °F
Precip. -- inčů
7:34 AM 6:55 PM
Ubývající srpek, 6% visible
Tlak 29.94 inčů
Viditelnost 6.0 mílí
Zataženo Zataženo 6500 ft
Rosný bod 71 °F
Vlhkost 100%
Dešťové srážky 0.00 inčů
Sněhová pokrývka Není k dispozici
UV záření 0 ze 12
Pyl 6.50 ze 12
Ozón Dobrý
Flu Activity Sporadic
METAR KNQI 210956Z AUTO 02006KT 6SM BR OVC065 22/22 A2995 RMK AO2 SLP137 T02170217

More Conditions Fewer Conditions

Tlak 29.94 inčů
Viditelnost 6.0 mílí
Zataženo Zataženo 6500 ft
Rosný bod 71 °F
Vlhkost 100%
Dešťové srážky 0.00 inčů
Sněhová pokrývka Není k dispozici
UV záření 0 ze 12
Pyl 6.50 ze 12
Ozón Dobrý
Flu Activity Sporadic
METAR KNQI 210956Z AUTO 02006KT 6SM BR OVC065 22/22 A2995 RMK AO2 SLP137 T02170217

More Conditions Fewer Conditions

10-Day Weather Forecast

Almanac

Astronomie

Oct. 21, 2014 Východ Západ
Skutečný čas 07:34 CDT 18:55 CDT
Občanský soumrak 07:10 CDT 19:19 CDT
Námořní soumrak 06:43 CDT 19:47 CDT
Astronomický soumrak 06:16 CDT 20:14 CDT
Měsíc 05:31 CDT 17:41 CDT
Délka denního světla 12h 08m
Délka dne
11h 21m
Tomorrow will be 1m 32s shorter.
Ubývající srpek, 6% of the Moon is Illuminated
Dnes
Ubývající srpek
Říj 23
Nov
Říj 30
První čtvrť
Lis 6
Úplněk
Lis 14
Ubývající

Dnešní extrémy

State Highs State Lows

Community

WunderPhotos

Upload Photos

1,763,625 snímků staženo!

Nearby

Kvalita ovzduší

  Kvalita ovzduší Index kvality ovzduší Polutant
Včera Dobrý
OZONE
Nyní Dobrý
OZONE
Úterý Střední
OZONE
Úterý Dobrý
PM10
Středa Střední
OZONE
Středa Dobrý
PM10
Čtvrtek Střední
OZONE
Čtvrtek Dobrý
PM10

Výška sněhu

Station Hloubka Nadmořská výška
Žádný nový sníh nebyl hlášen

Seizmická činnost

Město Distance Mag. Čas & datum
Žádné zemětřesení v okolí nebylo hlášeno
Minimální zobrazený rozsah je 2.5.

Pobřežní teplota vody

Lokalita Teplota
Baffin Bay Point of Rocks, TX 82.0 °F
South Bird Island, TX 75.9 °F
Packery Channel, TX 75.0 °F
Port Aransas, TX 78.1 °F
Malaquite Beach (Corpus Christi), TX 78.1 °F

Poblíž povětrnostní stanice